Terminal Aerodrome Forecast
Issued by NWS Raleigh/Durham, NC

Current Version | Previous Version | Text Only | Print | Product List | Glossary On
Versions: 1 2 3 4 5 6 7 8 9 10 11 12 13 14 15 16 17 18 19 20 21 22 23 24 25 26 27 28 29 30
000
FTUS42 KRAH 222126 AAB
TAFGSO
TAF AMD
KGSO 222126Z 2221/2318 VRB04KT P6SM VCSH SCT035 BKN100
      TEMPO 2221/2223 5SM -SHRA BKN025 OVC100
     FM222300 VRB03KT P6SM OVC130
     FM230600 00000KT P6SM VCSH OVC040
      TEMPO 2306/2309 3SM -SHRA BR OVC018
     FM230900 05004KT 5SM -SHRA BR OVC010
      TEMPO 2309/2312 1 1/2SM SHRA BR OVC004
     FM231400 04006KT P6SM VCSH OVC008=

USA.gov is the U.S. government's official web portal to all federal, state and local government web resources and services.